Time;durP1;ratioP1;P1;durP2;ratioP2;P2;SDS_P1;SDS_P2;PMS_P1;PMS_P2;Temp;Humidity;BMP_temperature;BMP_pressure;BME280_temperature;BME280_humidity;BME280_pressure;Samples;Min_cycle;Max_cycle;Signal;HPM_P1;HPM_P2
2023/07/17 00:02:11;;;;;;;2.4;2.2;;;;;;;;;;;;;
2023/07/17 00:04:36;;;;;;;2.5;2.3;;;;;;;;;;;;;
2023/07/17 00:07:02;;;;;;;4.7;2.2;;;;;;;;;;;;;
2023/07/17 00:09:27;;;;;;;3.3;2.4;;;;;;;;;;;;;
2023/07/17 00:11:55;;;;;;;4.2;2.4;;;;;;;;;;;;;
2023/07/17 00:14:20;;;;;;;3;2.1;;;;;;;;;;;;;
2023/07/17 00:16:47;;;;;;;3.3;2.4;;;;;;;;;;;;;
2023/07/17 00:19:12;;;;;;;2.8;2.5;;;;;;;;;;;;;
2023/07/17 00:21:37;;;;;;;3.2;2.4;;;;;;;;;;;;;
2023/07/17 00:24:03;;;;;;;3.2;2.3;;;;;;;;;;;;;
2023/07/17 00:26:28;;;;;;;3.2;2.5;;;;;;;;;;;;;
2023/07/17 00:28:55;;;;;;;3.2;2.5;;;;;;;;;;;;;
2023/07/17 00:31:20;;;;;;;3.3;2.5;;;;;;;;;;;;;
2023/07/17 00:33:47;;;;;;;4.7;2.8;;;;;;;;;;;;;
2023/07/17 00:36:13;;;;;;;4;2.7;;;;;;;;;;;;;
2023/07/17 00:38:39;;;;;;;3.4;2.4;;;;;;;;;;;;;
2023/07/17 00:41:04;;;;;;;3.5;2.5;;;;;;;;;;;;;
2023/07/17 00:43:29;;;;;;;2.6;2.4;;;;;;;;;;;;;
2023/07/17 00:45:54;;;;;;;2.8;2.4;;;;;;;;;;;;;
2023/07/17 00:48:21;;;;;;;2.6;2.4;;;;;;;;;;;;;
2023/07/17 00:50:46;;;;;;;4.3;2.7;;;;;;;;;;;;;
2023/07/17 00:53:11;;;;;;;4.3;2.5;;;;;;;;;;;;;
2023/07/17 00:55:51;;;;;;;4.1;2.5;;;;;;;;;;;;;
2023/07/17 00:58:18;;;;;;;2.4;2.2;;;;;;;;;;;;;
2023/07/17 01:00:44;;;;;;;2.6;2.4;;;;;;;;;;;;;
2023/07/17 01:03:09;;;;;;;3.3;2.6;;;;;;;;;;;;;
2023/07/17 01:05:34;;;;;;;2.8;2.6;;;;;;;;;;;;;
2023/07/17 01:07:59;;;;;;;3.8;2.9;;;;;;;;;;;;;
2023/07/17 01:10:25;;;;;;;3.1;2.8;;;;;;;;;;;;;
2023/07/17 01:12:51;;;;;;;2.9;2.6;;;;;;;;;;;;;
2023/07/17 01:15:16;;;;;;;3.8;2.9;;;;;;;;;;;;;
2023/07/17 01:17:44;;;;;;;2.9;2.6;;;;;;;;;;;;;
2023/07/17 01:20:10;;;;;;;2.9;2.6;;;;;;;;;;;;;
2023/07/17 01:22:36;;;;;;;3.2;2.9;;;;;;;;;;;;;
2023/07/17 01:25:03;;;;;;;3.3;2.6;;;;;;;;;;;;;
2023/07/17 01:27:27;;;;;;;5.3;2.8;;;;;;;;;;;;;
2023/07/17 01:29:52;;;;;;;3.8;2.9;;;;;;;;;;;;;
2023/07/17 01:32:19;;;;;;;3.3;2.8;;;;;;;;;;;;;
2023/07/17 01:34:42;;;;;;;3.2;2.9;;;;;;;;;;;;;
2023/07/17 01:37:07;;;;;;;4.9;3.1;;;;;;;;;;;;;
2023/07/17 01:39:32;;;;;;;3;2.7;;;;;;;;;;;;;
2023/07/17 01:41:59;;;;;;;3.8;3.1;;;;;;;;;;;;;
2023/07/17 01:44:27;;;;;;;3.7;2.7;;;;;;;;;;;;;
2023/07/17 01:46:49;;;;;;;4.7;3;;;;;;;;;;;;;
2023/07/17 01:49:15;;;;;;;5.1;2.9;;;;;;;;;;;;;
2023/07/17 01:51:40;;;;;;;5.6;2.6;;;;;;;;;;;;;
2023/07/17 01:54:06;;;;;;;2.8;2.5;;;;;;;;;;;;;
2023/07/17 01:56:32;;;;;;;4.1;3.3;;;;;;;;;;;;;
2023/07/17 01:58:57;;;;;;;4.3;3;;;;;;;;;;;;;
2023/07/17 02:01:23;;;;;;;3.3;2.7;;;;;;;;;;;;;
2023/07/17 02:03:48;;;;;;;3.4;2.7;;;;;;;;;;;;;
2023/07/17 02:06:14;;;;;;;3.5;3.2;;;;;;;;;;;;;
2023/07/17 02:08:39;;;;;;;4.2;2.9;;;;;;;;;;;;;
2023/07/17 02:11:05;;;;;;;3.5;2.7;;;;;;;;;;;;;
2023/07/17 02:13:31;;;;;;;3.4;2.8;;;;;;;;;;;;;
2023/07/17 02:15:56;;;;;;;5.2;3.5;;;;;;;;;;;;;
2023/07/17 02:18:21;;;;;;;3.8;2.8;;;;;;;;;;;;;
2023/07/17 02:20:46;;;;;;;3.7;2.9;;;;;;;;;;;;;
2023/07/17 02:23:11;;;;;;;3.4;3.1;;;;;;;;;;;;;
2023/07/17 02:25:38;;;;;;;3.4;3.1;;;;;;;;;;;;;
2023/07/17 02:28:03;;;;;;;3.3;3;;;;;;;;;;;;;
2023/07/17 02:30:29;;;;;;;3.3;2.9;;;;;;;;;;;;;
2023/07/17 02:32:54;;;;;;;4.1;2.7;;;;;;;;;;;;;
2023/07/17 02:35:20;;;;;;;3.4;3;;;;;;;;;;;;;
2023/07/17 02:37:45;;;;;;;2.9;2.6;;;;;;;;;;;;;
2023/07/17 02:40:12;;;;;;;3.9;3;;;;;;;;;;;;;
2023/07/17 02:42:40;;;;;;;3.3;2.8;;;;;;;;;;;;;
2023/07/17 02:45:05;;;;;;;3.4;2.9;;;;;;;;;;;;;
2023/07/17 02:47:32;;;;;;;2.8;2.5;;;;;;;;;;;;;
2023/07/17 02:49:57;;;;;;;3.2;2.7;;;;;;;;;;;;;
2023/07/17 02:52:22;;;;;;;3.1;2.8;;;;;;;;;;;;;
2023/07/17 02:54:47;;;;;;;4.7;3.1;;;;;;;;;;;;;
2023/07/17 02:57:15;;;;;;;3.3;2.7;;;;;;;;;;;;;
2023/07/17 02:59:40;;;;;;;3.6;2.9;;;;;;;;;;;;;
2023/07/17 03:02:06;;;;;;;3.4;3.1;;;;;;;;;;;;;
2023/07/17 03:04:33;;;;;;;3.3;2.6;;;;;;;;;;;;;
2023/07/17 03:06:58;;;;;;;2.7;2.5;;;;;;;;;;;;;
2023/07/17 03:09:23;;;;;;;3.2;2.8;;;;;;;;;;;;;
2023/07/17 03:11:48;;;;;;;3.5;2.7;;;;;;;;;;;;;
2023/07/17 03:14:15;;;;;;;3.7;3;;;;;;;;;;;;;
2023/07/17 03:16:40;;;;;;;3.9;3;;;;;;;;;;;;;
2023/07/17 03:19:06;;;;;;;5.5;2.9;;;;;;;;;;;;;
2023/07/17 03:21:31;;;;;;;4;3;;;;;;;;;;;;;
2023/07/17 03:23:57;;;;;;;3.2;2.8;;;;;;;;;;;;;
2023/07/17 03:26:22;;;;;;;4.2;2.8;;;;;;;;;;;;;
2023/07/17 03:28:57;;;;;;;4.4;3.1;;;;;;;;;;;;;
2023/07/17 03:31:23;;;;;;;3.4;2.9;;;;;;;;;;;;;
2023/07/17 03:36:13;;;;;;;3.5;3;;;;;;;;;;;;;
2023/07/17 03:38:38;;;;;;;3.2;2.9;;;;;;;;;;;;;
2023/07/17 03:41:03;;;;;;;3.2;2.9;;;;;;;;;;;;;
2023/07/17 03:43:28;;;;;;;3.9;2.7;;;;;;;;;;;;;
2023/07/17 03:45:55;;;;;;;3.9;2.7;;;;;;;;;;;;;
2023/07/17 03:48:20;;;;;;;3.3;2.7;;;;;;;;;;;;;
2023/07/17 03:50:46;;;;;;;3;2.5;;;;;;;;;;;;;
2023/07/17 03:53:11;;;;;;;3;2.7;;;;;;;;;;;;;
2023/07/17 03:55:37;;;;;;;3.4;3;;;;;;;;;;;;;
2023/07/17 03:58:03;;;;;;;3;2.7;;;;;;;;;;;;;
2023/07/17 04:06:06;;;;;;;3;2.7;;;;;;;20.82;88.49805;940.5131;;;;
2023/07/17 04:08:34;;;;;;;3.4;3.1;;;;;;;20.82;89.1543;940.4025;;;;
2023/07/17 04:10:59;;;;;;;4.3;3.5;;;;;;;20.84;88.89941;940.3836;;;;
2023/07/17 04:13:27;;;;;;;3.5;3.2;;;;;;;20.8;89.39453;940.4213;;;;
2023/07/17 04:16:00;;;;;;;3.6;3.3;;;;;;;20.84;89.4502;940.7413;;;;
2023/07/17 04:18:26;;;;;;;3.7;3;;;;;;;20.9;89.67188;940.8756;;;;
2023/07/17 04:20:57;;;;;;;3.8;3.4;;;;;;;20.95;89.02832;940.8889;;;;
2023/07/17 04:23:27;;;;;;;4.1;3.4;;;;;;;20.97;88.42383;940.9532;;;;
2023/07/17 04:25:58;;;;;;;4;3.2;;;;;;;20.91;89.22949;941.1417;;;;
2023/07/17 04:28:30;;;;;;;6.6;3.8;;;;;;;20.74;92.37598;941.3326;;;;
2023/07/17 04:30:59;;;;;;;5.6;3.7;;;;;;;20.26;95.83496;941.5059;;;;
2023/07/17 04:33:30;;;;;;;6.1;4;;;;;;;19.92;97.13867;941.457;;;;
2023/07/17 04:36:01;;;;;;;6.6;3.4;;;;;;;19.78;99.38086;941.3766;;;;
2023/07/17 04:38:30;;;;;;;5.1;3.1;;;;;;;19.82;100;941.3265;;;;
2023/07/17 04:41:00;;;;;;;3.2;2.8;;;;;;;19.68;99.3584;941.4125;;;;
2023/07/17 04:43:25;;;;;;;4.4;3.4;;;;;;;19.7;99.49121;941.3442;;;;
2023/07/17 04:45:56;;;;;;;4;2.9;;;;;;;19.83;99.36816;941.3887;;;;
2023/07/17 04:48:26;;;;;;;5.4;3.1;;;;;;;19.97;99.74805;941.4108;;;;
2023/07/17 04:50:56;;;;;;;4.3;3.1;;;;;;;19.97;99.62207;941.3976;;;;
2023/07/17 04:53:21;;;;;;;3.8;3;;;;;;;20.06;99.28027;941.3896;;;;
2023/07/17 04:55:55;;;;;;;4.4;3.2;;;;;;;20.1;97.84375;941.442;;;;
2023/07/17 04:58:32;;;;;;;6.5;3.7;;;;;;;19.77;100;941.527;;;;
2023/07/17 05:04:22;;;;;;;4.5;3.5;;;;;;;19.72;100;941.6572;;;;
2023/07/17 05:06:56;;;;;;;3.5;3.1;;;;;;;19.79;100;941.6776;;;;
2023/07/17 05:09:19;;;;;;;3.5;2.8;;;;;;;19.73;100;941.6774;;;;
2023/07/17 05:20:27;;;;;;;3.6;2.7;;;;;;;19.98;100;941.6772;;;;
2023/07/17 05:22:55;;;;;;;3.6;2.9;;;;;;;19.8;100;941.6557;;;;
2023/07/17 05:25:21;;;;;;;3;2.7;;;;;;;19.94;100;941.72;;;;
2023/07/17 05:27:46;;;;;;;3.5;3.2;;;;;;;19.89;100;941.6735;;;;
2023/07/17 05:30:10;;;;;;;3.3;3;;;;;;;20.14;100;941.6167;;;;
2023/07/17 05:32:35;;;;;;;3.7;2.7;;;;;;;20.26;100;941.6362;;;;
2023/07/17 05:35:04;;;;;;;3.9;2.9;;;;;;;20.43;99.46875;941.6409;;;;
2023/07/17 05:37:29;;;;;;;2.9;2.4;;;;;;;20.51;98.92676;941.7078;;;;
2023/07/17 05:39:54;;;;;;;3.7;2.6;;;;;;;20.61;98.5166;941.733;;;;
2023/07/17 05:42:24;;;;;;;3.6;2.4;;;;;;;20.64;97.54297;941.6855;;;;
2023/07/17 05:44:55;;;;;;;3.9;2.3;;;;;;;20.72;97.18457;941.7873;;;;
2023/07/17 05:47:20;;;;;;;3.7;2.3;;;;;;;20.71;98.45703;941.7754;;;;
2023/07/17 05:49:46;;;;;;;4.2;2.6;;;;;;;20.79;98.13574;941.7961;;;;
2023/07/17 05:52:11;;;;;;;3.1;2.6;;;;;;;20.82;98.2002;941.8148;;;;
2023/07/17 05:54:41;;;;;;;3.5;2.9;;;;;;;20.83;97.19727;941.8538;;;;
2023/07/17 05:57:07;;;;;;;3.4;3;;;;;;;20.87;96.96191;941.8858;;;;
2023/07/17 05:59:32;;;;;;;4.2;3.4;;;;;;;21.43;98.20801;941.928;;;;
2023/07/17 06:02:02;;;;;;;2.9;2.6;;;;;;;22.79;92.37891;941.9753;;;;
2023/07/17 06:04:33;;;;;;;3.5;2.8;;;;;;;24.3;82.41895;941.9994;;;;
2023/07/17 06:07:06;;;;;;;2.9;2.6;;;;;;;24.67;78.85645;942.1024;;;;
2023/07/17 06:09:38;;;;;;;3.7;2.9;;;;;;;24.48;81.66504;942.0586;;;;
2023/07/17 06:12:03;;;;;;;3.2;2.8;;;;;;;24.4;77.9248;942.0925;;;;
2023/07/17 06:14:32;;;;;;;2.8;2.5;;;;;;;24.38;80.03027;942.1674;;;;
2023/07/17 06:16:57;;;;;;;4;2.7;;;;;;;24.17;79.8877;942.1175;;;;
2023/07/17 06:19:25;;;;;;;3.5;2.6;;;;;;;23.7;80.47363;942.187;;;;
2023/07/17 06:21:50;;;;;;;4.1;2.3;;;;;;;23.45;82.43848;942.2061;;;;
2023/07/17 06:24:19;;;;;;;3.3;2.4;;;;;;;23.63;80.63867;942.2167;;;;
2023/07/17 06:26:48;;;;;;;2.7;2.4;;;;;;;23.53;82.53613;942.2198;;;;
2023/07/17 06:29:13;;;;;;;2.8;2.4;;;;;;;23.43;82.09473;942.267;;;;
2023/07/17 06:31:42;;;;;;;2.6;2.4;;;;;;;23.17;81.96387;942.3092;;;;
2023/07/17 06:34:14;;;;;;;3.9;2.4;;;;;;;23.23;81.63477;942.3597;;;;
2023/07/17 06:36:48;;;;;;;2.3;2.1;;;;;;;23.18;80.78027;942.3811;;;;
2023/07/17 06:39:19;;;;;;;2.4;2.1;;;;;;;23.31;82.2373;942.413;;;;
2023/07/17 06:41:45;;;;;;;2.3;2.1;;;;;;;23.21;79.29297;942.3583;;;;
2023/07/17 06:44:15;;;;;;;2.2;1.8;;;;;;;23.35;81.29395;942.3619;;;;
2023/07/17 06:46:46;;;;;;;2.6;2.1;;;;;;;23.11;81.35449;942.4201;;;;
2023/07/17 06:49:13;;;;;;;2;1.8;;;;;;;23.3;82.7627;942.4167;;;;
2023/07/17 06:51:39;;;;;;;2.4;1.8;;;;;;;23.22;81.80957;942.3635;;;;
2023/07/17 06:54:07;;;;;;;1.8;1.7;;;;;;;23.43;80.51855;942.3459;;;;
2023/07/17 06:56:32;;;;;;;2.5;1.7;;;;;;;23.59;78.57227;942.366;;;;
2023/07/17 06:58:57;;;;;;;2.1;1.9;;;;;;;23.8;78.5752;942.4116;;;;
2023/07/17 07:01:22;;;;;;;2.3;1.9;;;;;;;23.77;80.25293;942.4078;;;;
2023/07/17 07:03:53;;;;;;;3.2;1.8;;;;;;;23.67;80.32813;942.4406;;;;
2023/07/17 07:06:21;;;;;;;2.3;2.1;;;;;;;23.56;81.68262;942.3986;;;;
2023/07/17 07:08:47;;;;;;;2.9;2.3;;;;;;;22.99;82.08496;942.4641;;;;
2023/07/17 07:11:11;;;;;;;3.3;2.5;;;;;;;23.01;82.85156;942.4408;;;;
2023/07/17 07:13:37;;;;;;;3.2;2.1;;;;;;;23.45;81.39258;942.5159;;;;
2023/07/17 07:16:02;;;;;;;2.8;2.2;;;;;;;23.77;78.36914;942.4608;;;;
2023/07/17 07:18:33;;;;;;;3.2;2.2;;;;;;;23.97;78.45215;942.4572;;;;
2023/07/17 07:20:58;;;;;;;3;2.5;;;;;;;23.79;79.04297;942.4244;;;;
2023/07/17 07:23:25;;;;;;;3;2.3;;;;;;;24.16;77.76563;942.4062;;;;
2023/07/17 07:25:51;;;;;;;3.6;2.3;;;;;;;24.34;76.52441;942.4472;;;;
2023/07/17 07:28:20;;;;;;;2.2;2;;;;;;;24.76;73.60059;942.4604;;;;
2023/07/17 07:30:48;;;;;;;3.2;1.9;;;;;;;25.03;71.54492;942.4155;;;;
2023/07/17 07:33:15;;;;;;;3.2;2.7;;;;;;;25.32;71.69727;942.4686;;;;
2023/07/17 07:35:40;;;;;;;2.3;2.1;;;;;;;25.43;71.51563;942.4797;;;;
2023/07/17 07:38:12;;;;;;;3;2.4;;;;;;;25.52;72.49707;942.4761;;;;
2023/07/17 07:40:45;;;;;;;2.5;2.1;;;;;;;25.24;70.63379;942.454;;;;
2023/07/17 07:43:10;;;;;;;3.6;2.3;;;;;;;24.69;73.43652;942.4995;;;;
2023/07/17 07:45:37;;;;;;;4.9;2.2;;;;;;;24.38;75.41113;942.4922;;;;
2023/07/17 07:48:07;;;;;;;4.7;2.5;;;;;;;24.52;73.99805;942.3713;;;;
2023/07/17 07:50:32;;;;;;;3.3;2.1;;;;;;;24.67;73.5498;942.446;;;;
2023/07/17 07:53:00;;;;;;;3.9;2.4;;;;;;;24.92;72.25879;942.4275;;;;
2023/07/17 07:55:25;;;;;;;2.9;2.1;;;;;;;25.33;70.21191;942.4034;;;;
2023/07/17 07:57:53;;;;;;;2.8;2.2;;;;;;;25.04;65.85938;942.2969;;;;
2023/07/17 08:00:18;;;;;;;2.7;1.8;;;;;;;25.45;68.11621;942.2612;;;;
2023/07/17 08:02:49;;;;;;;3.3;2.2;;;;;;;27.07;65.97949;942.2739;;;;
2023/07/17 08:05:20;;;;;;;2.5;2;;;;;;;27.05;67.54297;942.2469;;;;
2023/07/17 08:07:45;;;;;;;2.7;2.2;;;;;;;27.05;63.21484;942.226;;;;
2023/07/17 08:10:12;;;;;;;2.3;2.1;;;;;;;27.08;62.81738;942.212;;;;
2023/07/17 08:12:37;;;;;;;3.1;2;;;;;;;27.24;61.34473;942.2528;;;;
2023/07/17 08:15:10;;;;;;;3.2;2.1;;;;;;;26.73;63.65527;942.2509;;;;
2023/07/17 08:17:40;;;;;;;2.8;2.1;;;;;;;27.24;61.88965;942.3217;;;;
2023/07/17 08:20:06;;;;;;;2.4;2;;;;;;;27.15;61.49805;942.2756;;;;
2023/07/17 08:22:30;;;;;;;3.4;2;;;;;;;27.24;62.0918;942.1883;;;;
2023/07/17 08:24:57;;;;;;;2.9;2.1;;;;;;;26.46;60.70605;942.1869;;;;
2023/07/17 08:27:22;;;;;;;4.2;2.1;;;;;;;26.14;63.9502;942.2147;;;;
2023/07/17 08:29:50;;;;;;;2.7;1.9;;;;;;;26.77;61.96875;942.2202;;;;
2023/07/17 08:32:16;;;;;;;2.9;2.1;;;;;;;26.16;63.96484;942.1942;;;;
2023/07/17 08:34:43;;;;;;;2.9;2.2;;;;;;;26.03;63.54492;942.1575;;;;
2023/07/17 08:37:08;;;;;;;2.4;1.9;;;;;;;25.35;66.24609;942.1568;;;;
2023/07/17 08:39:37;;;;;;;2.8;2.2;;;;;;;24.87;68.05176;942.1155;;;;
2023/07/17 08:42:08;;;;;;;3.1;2.2;;;;;;;24.64;70.59863;942.1677;;;;
2023/07/17 08:44:33;;;;;;;3.3;2.4;;;;;;;25.02;66.98828;942.1135;;;;
2023/07/17 08:47:00;;;;;;;4.4;2.2;;;;;;;24.45;71.80469;942.1277;;;;
2023/07/17 08:49:25;;;;;;;3.2;2.1;;;;;;;24.6;70.36816;942.1892;;;;
2023/07/17 08:51:50;;;;;;;3.9;2.3;;;;;;;24.75;69.56543;942.165;;;;
2023/07/17 08:54:17;;;;;;;2.9;2.3;;;;;;;24.64;70.49316;942.1652;;;;
2023/07/17 08:56:42;;;;;;;3.8;2.5;;;;;;;24.61;72.09082;942.2166;;;;
2023/07/17 08:59:08;;;;;;;2.9;2.2;;;;;;;24.78;71.39844;942.0734;;;;
2023/07/17 09:01:34;;;;;;;2.3;2.1;;;;;;;24.24;72.09082;942.0698;;;;
2023/07/17 09:04:06;;;;;;;4.7;2.7;;;;;;;24.18;73.47168;942.0602;;;;
2023/07/17 09:06:35;;;;;;;3.4;2.5;;;;;;;24.01;73.24121;942.0848;;;;
2023/07/17 09:09:00;;;;;;;3.5;2.2;;;;;;;24.11;75.3418;941.9977;;;;
2023/07/17 09:11:30;;;;;;;2.7;2.1;;;;;;;24.28;72.22559;942.0592;;;;
2023/07/17 09:14:00;;;;;;;2.9;2.4;;;;;;;24.18;72.66895;942.0334;;;;
2023/07/17 09:16:25;;;;;;;2.9;2.3;;;;;;;24.15;73.19434;942.0148;;;;
2023/07/17 09:18:50;;;;;;;3.5;2.3;;;;;;;24.6;72.92578;942.0729;;;;
2023/07/17 09:21:19;;;;;;;2.7;2.5;;;;;;;25.09;71.27344;942.0569;;;;
2023/07/17 09:23:44;;;;;;;2.3;1.9;;;;;;;25.85;67.98633;942.0575;;;;
2023/07/17 09:26:10;;;;;;;2.8;2.2;;;;;;;25.69;69.25098;942.0664;;;;
2023/07/17 09:28:38;;;;;;;2.4;2.1;;;;;;;25.32;69.07617;942.0959;;;;
2023/07/17 09:31:02;;;;;;;2.6;2.1;;;;;;;25.05;69.74316;942.0798;;;;
2023/07/17 09:33:30;;;;;;;2.9;2.1;;;;;;;24.98;69.66016;942.0447;;;;
2023/07/17 09:35:55;;;;;;;3.3;2;;;;;;;25.57;70.66309;942.0765;;;;
2023/07/17 09:38:22;;;;;;;2.5;2.1;;;;;;;25.22;69.07324;942.0425;;;;
2023/07/17 09:40:47;;;;;;;2.6;2.1;;;;;;;25.14;71.95117;941.9881;;;;
2023/07/17 09:43:16;;;;;;;3.2;2.2;;;;;;;26.12;67.37793;941.95;;;;
2023/07/17 09:45:41;;;;;;;2.4;1.9;;;;;;;26.29;67.30957;941.9796;;;;
2023/07/17 09:48:09;;;;;;;3.1;1.9;;;;;;;25.91;66.88574;941.9526;;;;
2023/07/17 09:50:34;;;;;;;2.9;2.2;;;;;;;26.42;69.23535;941.9231;;;;
2023/07/17 09:53:01;;;;;;;2.1;1.9;;;;;;;26.96;67.5166;941.9025;;;;
2023/07/17 09:55:26;;;;;;;6.3;2.7;;;;;;;27.75;63.0293;941.9114;;;;
2023/07/17 09:57:55;;;;;;;10.2;5.4;;;;;;;27.24;65.70898;941.975;;;;
2023/07/17 10:00:26;;;;;;;33.3;14;;;;;;;27.7;64.00684;941.9548;;;;
2023/07/17 10:02:51;;;;;;;27.2;12;;;;;;;28.17;62.28125;941.9489;;;;
2023/07/17 10:05:16;;;;;;;3.5;2.5;;;;;;;27.96;63.98535;941.962;;;;
2023/07/17 10:07:46;;;;;;;3.2;2.2;;;;;;;27.52;65.0498;941.8995;;;;
2023/07/17 10:10:18;;;;;;;6;3.6;;;;;;;27.06;65.19727;941.9155;;;;
2023/07/17 10:12:43;;;;;;;3.5;2.5;;;;;;;26.27;67.21191;941.9175;;;;
2023/07/17 10:15:09;;;;;;;3;2.4;;;;;;;26.43;70.05371;941.9269;;;;
2023/07/17 10:17:39;;;;;;;6.3;3.3;;;;;;;26.83;66.72754;941.9045;;;;
2023/07/17 10:20:04;;;;;;;5.9;3.3;;;;;;;27.2;67.5752;941.9267;;;;
2023/07/17 10:22:33;;;;;;;3.5;2.4;;;;;;;27.33;64.76074;941.8508;;;;
2023/07/17 10:25:02;;;;;;;3;1.9;;;;;;;26.79;65.41699;941.89;;;;
2023/07/17 10:27:30;;;;;;;2.5;2.1;;;;;;;26.71;67.82227;941.8212;;;;
2023/07/17 10:29:57;;;;;;;2.8;2;;;;;;;27.04;63.5459;941.8706;;;;
2023/07/17 10:32:27;;;;;;;1.8;1.7;;;;;;;27.08;65.68457;941.8525;;;;
2023/07/17 10:34:53;;;;;;;2.3;2.1;;;;;;;26.61;68.31641;941.8467;;;;
2023/07/17 10:37:18;;;;;;;2.1;1.9;;;;;;;26.69;67.2627;941.8007;;;;
2023/07/17 10:39:45;;;;;;;2.7;1.8;;;;;;;27.17;64.42969;941.7676;;;;
2023/07/17 10:42:10;;;;;;;2.6;1.6;;;;;;;27.69;61.38379;941.7597;;;;
2023/07/17 10:44:35;;;;;;;3;1.9;;;;;;;28.28;61.03613;941.8175;;;;
2023/07/17 10:47:02;;;;;;;2.6;2;;;;;;;28.72;58.62012;941.8329;;;;
2023/07/17 10:49:28;;;;;;;3.7;2;;;;;;;28.45;60.54688;941.7186;;;;
2023/07/17 10:51:55;;;;;;;3;2.1;;;;;;;27.03;65.18066;941.7059;;;;
2023/07/17 10:54:19;;;;;;;2.9;2.1;;;;;;;26.21;67.32129;941.7148;;;;
2023/07/17 10:56:48;;;;;;;2.6;2.2;;;;;;;25.5;68.62109;941.7558;;;;
2023/07/17 10:59:13;;;;;;;4.2;2.4;;;;;;;25.04;70.87305;941.7592;;;;
2023/07/17 11:01:39;;;;;;;3.6;2;;;;;;;24.75;72.125;941.7123;;;;
2023/07/17 11:04:04;;;;;;;3.5;2.2;;;;;;;24.86;71.44629;941.7675;;;;
2023/07/17 11:06:33;;;;;;;2.6;2.2;;;;;;;25.21;70.88867;941.6984;;;;
2023/07/17 11:08:58;;;;;;;2.7;2.4;;;;;;;25.33;70.51953;941.7514;;;;
2023/07/17 11:11:27;;;;;;;3.8;2.4;;;;;;;25.36;70.51172;941.7051;;;;
2023/07/17 11:13:52;;;;;;;2.7;2.2;;;;;;;25.48;71.30957;941.7478;;;;
2023/07/17 11:16:19;;;;;;;2.3;2.1;;;;;;;25.11;71.32129;941.7971;;;;
2023/07/17 11:18:44;;;;;;;3.5;2.2;;;;;;;25.09;71.23438;941.8004;;;;
2023/07/17 11:21:09;;;;;;;2.5;2.2;;;;;;;25.29;71.39941;941.7758;;;;
2023/07/17 11:23:34;;;;;;;3.1;2.2;;;;;;;25.29;72.24805;941.7703;;;;
2023/07/17 11:25:59;;;;;;;2.3;2.1;;;;;;;25.42;72.15137;941.7711;;;;
2023/07/17 11:28:26;;;;;;;2.5;2;;;;;;;25.59;71.3623;941.7642;;;;
2023/07/17 11:30:51;;;;;;;2.9;2.2;;;;;;;25.53;69.56836;941.8045;;;;
2023/07/17 11:33:21;;;;;;;2.6;2.1;;;;;;;25.83;71.37891;941.7505;;;;
2023/07/17 11:35:46;;;;;;;3.5;2.4;;;;;;;26.01;72.69531;941.7441;;;;
2023/07/17 11:38:12;;;;;;;3.1;2.6;;;;;;;26.13;68.64355;941.7352;;;;
2023/07/17 11:40:37;;;;;;;2.8;2.3;;;;;;;26.08;69.31152;941.6925;;;;
2023/07/17 11:43:02;;;;;;;3.4;2.3;;;;;;;26.08;67.44336;941.7037;;;;
2023/07/17 11:45:29;;;;;;;3.8;2.4;;;;;;;26.08;68.47266;941.7086;;;;
2023/07/17 11:47:55;;;;;;;2.8;2.2;;;;;;;25.67;68.66895;941.7131;;;;
2023/07/17 11:50:34;;;;;;;3.7;2.1;;;;;;;25.56;69.85742;941.5977;;;;
2023/07/17 11:53:00;;;;;;;2.7;2.3;;;;;;;25.43;71.92871;941.5637;;;;
2023/07/17 11:55:25;;;;;;;2.6;2.4;;;;;;;25.67;71.22168;941.5214;;;;
2023/07/17 11:57:53;;;;;;;3.6;2.6;;;;;;;26.29;72.00879;941.5154;;;;
2023/07/17 12:00:23;;;;;;;3.3;2.3;;;;;;;26.75;68.76465;941.517;;;;
2023/07/17 12:02:49;;;;;;;3;2.3;;;;;;;26.83;66.26563;941.4836;;;;
2023/07/17 12:05:20;;;;;;;2.7;2.2;;;;;;;26.61;64.90527;941.5209;;;;
2023/07/17 12:07:48;;;;;;;2.9;2.4;;;;;;;26.25;64.79395;941.4978;;;;
2023/07/17 12:10:19;;;;;;;3.4;2.2;;;;;;;26.2;67.68652;941.4828;;;;
2023/07/17 12:12:48;;;;;;;3.4;2.4;;;;;;;26.3;67.76074;941.4786;;;;
2023/07/17 12:15:13;;;;;;;3;2.5;;;;;;;26.61;68.10254;941.4849;;;;
2023/07/17 12:17:42;;;;;;;3.5;2.4;;;;;;;26.76;66.65723;941.4484;;;;
2023/07/17 12:20:08;;;;;;;3.6;2.4;;;;;;;27.03;63.60352;941.361;;;;
2023/07/17 12:22:33;;;;;;;2.8;2.5;;;;;;;27.39;65.24512;941.2866;;;;
2023/07/17 12:24:59;;;;;;;2.9;2.6;;;;;;;27.61;65.77441;941.1777;;;;
2023/07/17 12:27:24;;;;;;;2.4;2.2;;;;;;;27.96;62.42871;941.1116;;;;
2023/07/17 12:29:53;;;;;;;3.6;2.4;;;;;;;27.82;63.58594;941.0891;;;;
2023/07/17 12:32:23;;;;;;;3.6;2.6;;;;;;;27.88;64.06836;941.0236;;;;
2023/07/17 12:34:49;;;;;;;3.1;2.4;;;;;;;27.68;63.25586;940.9896;;;;
2023/07/17 12:37:19;;;;;;;2.6;2.3;;;;;;;27.88;62.8457;940.9653;;;;
2023/07/17 12:39:49;;;;;;;2.8;2.5;;;;;;;27.78;60.56348;940.9472;;;;
2023/07/17 12:42:14;;;;;;;2.9;2.5;;;;;;;27.84;61.18945;940.978;;;;
2023/07/17 12:44:45;;;;;;;2.6;2.4;;;;;;;27.94;60.41895;940.9595;;;;
2023/07/17 12:47:10;;;;;;;3.1;2.5;;;;;;;27.83;59.32324;940.8809;;;;
2023/07/17 12:49:42;;;;;;;2.7;2.3;;;;;;;27.5;61.43945;940.8429;;;;
2023/07/17 12:52:13;;;;;;;3.6;2.4;;;;;;;27.73;63.75;940.8436;;;;
2023/07/17 12:54:38;;;;;;;3.6;2.4;;;;;;;27.85;60.20508;940.799;;;;
2023/07/17 12:57:04;;;;;;;3.1;2.6;;;;;;;27.41;62.75684;940.7734;;;;
2023/07/17 12:59:29;;;;;;;2.8;2.4;;;;;;;27.76;63.14844;940.7947;;;;
2023/07/17 13:02:00;;;;;;;2.4;2.2;;;;;;;28.01;61.69922;940.7764;;;;
2023/07/17 13:04:25;;;;;;;4.2;2.8;;;;;;;27.51;61.61914;940.7402;;;;
2023/07/17 13:06:50;;;;;;;2.6;2.4;;;;;;;27.28;62.41797;940.7492;;;;
2023/07/17 13:09:21;;;;;;;2.7;2.4;;;;;;;27.17;68.06934;940.8127;;;;
2023/07/17 13:11:45;;;;;;;3.6;2.5;;;;;;;27.33;63.92969;940.5744;;;;
2023/07/17 13:14:12;;;;;;;2.4;2.2;;;;;;;27.46;65.43359;940.418;;;;
2023/07/17 13:16:40;;;;;;;3.9;2.6;;;;;;;27.37;66.51172;940.4765;;;;
2023/07/17 13:19:05;;;;;;;2.7;2.5;;;;;;;27.53;63.59082;940.4993;;;;
2023/07/17 13:21:32;;;;;;;2.5;2.3;;;;;;;27.91;64.83203;940.5634;;;;
2023/07/17 13:23:58;;;;;;;2.9;2.4;;;;;;;27.83;63.18164;940.524;;;;
2023/07/17 13:26:27;;;;;;;2.7;2.5;;;;;;;27.88;63.7002;940.4247;;;;
2023/07/17 13:28:58;;;;;;;3.6;2.8;;;;;;;27.87;61.51563;940.5203;;;;
2023/07/17 13:31:23;;;;;;;3.4;2.7;;;;;;;27.95;62.36816;940.6644;;;;
2023/07/17 13:33:48;;;;;;;2.8;2.5;;;;;;;28.14;62.2168;940.5156;;;;
2023/07/17 13:36:14;;;;;;;3.3;2.4;;;;;;;28.36;59.12012;940.5577;;;;
2023/07/17 13:38:40;;;;;;;4.1;2.7;;;;;;;28.37;61.9502;940.5005;;;;
2023/07/17 13:41:05;;;;;;;3.6;2.6;;;;;;;28.22;65.86328;940.4959;;;;
2023/07/17 13:43:31;;;;;;;2.8;2.4;;;;;;;27.53;64.95703;940.4084;;;;
2023/07/17 13:45:56;;;;;;;3.1;2.5;;;;;;;27.66;64.21484;940.4899;;;;
2023/07/17 13:48:29;;;;;;;2.7;2.4;;;;;;;27.75;62.56641;940.4342;;;;
2023/07/17 13:50:58;;;;;;;4.6;2.5;;;;;;;27.48;64.73438;940.3484;;;;
2023/07/17 13:53:23;;;;;;;3.3;2.7;;;;;;;27.03;65.52246;940.3767;;;;
2023/07/17 13:55:52;;;;;;;3.2;2.8;;;;;;;26.98;68.4209;940.3631;;;;
2023/07/17 13:58:17;;;;;;;3.7;2.3;;;;;;;27.28;67.67188;940.359;;;;
2023/07/17 14:00:45;;;;;;;3.4;2.8;;;;;;;27.08;68.94434;940.5075;;;;
2023/07/17 14:03:10;;;;;;;3.6;2.8;;;;;;;26.82;67.0918;940.4511;;;;
2023/07/17 14:05:37;;;;;;;2.9;2.7;;;;;;;26.89;65.75195;940.4193;;;;
2023/07/17 14:08:08;;;;;;;2.6;2.4;;;;;;;26.83;67.81738;940.4465;;;;
2023/07/17 14:10:34;;;;;;;4;2.8;;;;;;;26.8;66.75879;940.4306;;;;
2023/07/17 14:13:00;;;;;;;3.1;2.8;;;;;;;26.95;65.39551;940.519;;;;
2023/07/17 14:15:26;;;;;;;3.1;2.8;;;;;;;26.89;67.04297;940.5494;;;;
2023/07/17 14:17:57;;;;;;;3.3;2.6;;;;;;;27.04;66.35547;940.3736;;;;
2023/07/17 14:20:25;;;;;;;3.9;2.4;;;;;;;27;64.73633;940.5237;;;;
2023/07/17 14:22:50;;;;;;;3.6;2.6;;;;;;;27.02;63.85059;940.5037;;;;
2023/07/17 14:25:23;;;;;;;3;2.7;;;;;;;26.93;66.08984;940.481;;;;
2023/07/17 14:27:52;;;;;;;4.8;2.5;;;;;;;27.05;64.11621;940.3839;;;;
2023/07/17 14:30:22;;;;;;;3;2.7;;;;;;;27.29;64.03223;940.3777;;;;
2023/07/17 14:32:47;;;;;;;3.5;2.7;;;;;;;27.4;63.66699;940.308;;;;
2023/07/17 14:35:19;;;;;;;3.1;2.6;;;;;;;27.45;61.33691;940.3875;;;;
2023/07/17 14:37:47;;;;;;;3.3;2.6;;;;;;;27.51;60.75391;940.3865;;;;
2023/07/17 14:40:19;;;;;;;4;2.7;;;;;;;27.48;62.63574;940.2271;;;;
2023/07/17 14:42:48;;;;;;;3.1;2.5;;;;;;;27.54;62.48926;940.2542;;;;
2023/07/17 14:45:13;;;;;;;4.5;2.7;;;;;;;27.71;61.39648;940.2023;;;;
2023/07/17 14:47:42;;;;;;;3;2.4;;;;;;;27.76;61.59375;940.179;;;;
2023/07/17 14:50:19;;;;;;;3;2.7;;;;;;;27.7;60.42188;940.2789;;;;
2023/07/17 14:52:41;;;;;;;3.8;2.7;;;;;;;27.74;60.62988;940.2963;;;;
2023/07/17 14:55:10;;;;;;;4.7;2.6;;;;;;;27.78;61.37109;940.3203;;;;
2023/07/17 14:57:41;;;;;;;3.4;2.7;;;;;;;27.67;61.22461;940.2087;;;;
2023/07/17 15:00:10;;;;;;;2.9;2.4;;;;;;;27.46;62.7627;940.2137;;;;
2023/07/17 15:02:35;;;;;;;3.9;2.6;;;;;;;27.39;64.1748;940.1848;;;;
2023/07/17 15:05:03;;;;;;;3.9;2.7;;;;;;;27.37;63.8291;940.255;;;;
2023/07/17 15:07:28;;;;;;;3.1;2.8;;;;;;;27.41;62.56641;940.1864;;;;
2023/07/17 15:09:54;;;;;;;2.9;2.3;;;;;;;27.47;61.31738;940.2244;;;;
2023/07/17 15:12:19;;;;;;;2.8;2.5;;;;;;;27.52;62.64063;940.2322;;;;
2023/07/17 15:14:48;;;;;;;4.3;2.8;;;;;;;27.41;62.60156;940.1667;;;;
2023/07/17 15:17:13;;;;;;;3.2;2.4;;;;;;;27.28;65.5127;940.1705;;;;
2023/07/17 15:19:41;;;;;;;3.3;2.7;;;;;;;26.89;67.33984;940.1912;;;;
2023/07/17 15:22:05;;;;;;;4;2.7;;;;;;;27.03;63.70898;940.2557;;;;
2023/07/17 15:24:30;;;;;;;3.3;2.6;;;;;;;27.14;62.3623;940.2003;;;;
2023/07/17 15:26:55;;;;;;;3.2;2.5;;;;;;;27.16;61.78418;940.259;;;;
2023/07/17 15:29:25;;;;;;;2.5;2.3;;;;;;;27.1;62.5;940.2668;;;;
2023/07/17 15:31:57;;;;;;;3.4;2.6;;;;;;;27.18;61.63281;940.3194;;;;
2023/07/17 15:34:25;;;;;;;3.7;2.8;;;;;;;27.25;61.86719;940.2889;;;;
2023/07/17 15:36:50;;;;;;;3.2;2.7;;;;;;;27.34;62.16504;940.2942;;;;
2023/07/17 15:39:20;;;;;;;3.8;2.9;;;;;;;27.33;61.97363;940.2971;;;;
2023/07/17 15:41:45;;;;;;;2.8;2.6;;;;;;;27.18;61.64453;940.2637;;;;
2023/07/17 15:44:12;;;;;;;3.2;2.5;;;;;;;27.22;61.55566;940.281;;;;
2023/07/17 15:46:37;;;;;;;4.1;2.9;;;;;;;27.28;62.16797;940.2801;;;;
2023/07/17 15:49:04;;;;;;;2.9;2.6;;;;;;;27.35;61.44238;940.318;;;;
2023/07/17 15:51:29;;;;;;;3.4;2.8;;;;;;;27.3;62.45605;940.3638;;;;
2023/07/17 15:53:54;;;;;;;3.6;2.9;;;;;;;27.27;62.73535;940.3752;;;;
2023/07/17 15:56:19;;;;;;;3.2;2.8;;;;;;;27.34;61.41895;940.3283;;;;
2023/07/17 15:58:48;;;;;;;2.7;2.5;;;;;;;27.36;61.48047;940.3017;;;;